עמוד ראשי
METAR-TAF:

METAR-TAF

שדות תעופה :

Clearwater, פלורידה, ארצות הברית

קו רוחב: 27-58-36N, קו אורך: 082-45-31W, גובה: 22מטר

תצפית מזג אוויר נוכחית

הדו"ח נערך לפני 37דקות, בשעה 15:35 UTC
רוח 9קשר מכיוון מזרח/דרום-מזרח, משתנה בין מזרח/צפון-מזרח ו דרום-מזרח
טמפרטורת 30 צלסיוס
לחות 62%
לחץ 1017 hPa
ראות: 16.1קילומטר
עננים פזורים בגובה 2800רגל
עננים בינוניים בגובה 3600רגל
עננים בינוניים בגובה 4100רגל

METAR: KCLW 171535Z AUTO 11009KT 070V130 10SM SCT028 BKN036 BKN041 30/22 A3004 RMK AO2

זמן: 12:12 (16:12 UTC)


TAF: חסר

תצפיות ותחזיות מזג אוויר לגבי יותר מ- 4,000 שדות תעופה ברחבי העולם. דוחות METAR ו- TAF.

התחנות הזמינות מסומנות בנקודות צהובות ואדומות על גבי המפה.

העבר את העכבר לנקודה הצבעונית על מנת לראות את שם התחנה.

לאחר מכן, לחץ כדי לראות את תוכן ואת תחזיות מזג האוויר.

כדי לשנות את המפה: לחץ על הכפתורים הירוקים עם הפלוס השחור כדי להתקרב; על הכפתור הירוק עם המקף כדי להתרחק; או בחיצים הירוקים למפות סמוכות.


METAR-TAF: